sensor_id;sensor_type;location;lat;lon;timestamp;temperature;humidity
20057;DHT22;10189;49.546;7.906;2023-03-16T00:00:16;-2.60;99.90
20057;DHT22;10189;49.546;7.906;2023-03-16T00:02:43;-2.70;99.90
20057;DHT22;10189;49.546;7.906;2023-03-16T00:05:11;-2.70;99.90
20057;DHT22;10189;49.546;7.906;2023-03-16T00:07:39;-2.70;99.90
20057;DHT22;10189;49.546;7.906;2023-03-16T00:10:08;-2.80;99.90
20057;DHT22;10189;49.546;7.906;2023-03-16T00:12:37;-2.80;99.90
20057;DHT22;10189;49.546;7.906;2023-03-16T00:15:04;-2.80;99.90
20057;DHT22;10189;49.546;7.906;2023-03-16T00:17:30;-2.90;99.90
20057;DHT22;10189;49.546;7.906;2023-03-16T00:19:56;-2.90;99.90
20057;DHT22;10189;49.546;7.906;2023-03-16T00:22:28;-2.90;99.90
20057;DHT22;10189;49.546;7.906;2023-03-16T00:24:55;-3.00;99.90
20057;DHT22;10189;49.546;7.906;2023-03-16T00:27:23;-2.90;99.90
20057;DHT22;10189;49.546;7.906;2023-03-16T00:29:51;-2.90;99.90
20057;DHT22;10189;49.546;7.906;2023-03-16T00:32:28;-2.90;99.90
20057;DHT22;10189;49.546;7.906;2023-03-16T00:34:56;-2.90;99.90
20057;DHT22;10189;49.546;7.906;2023-03-16T00:37:24;-2.90;99.90
20057;DHT22;10189;49.546;7.906;2023-03-16T00:39:52;-3.00;99.90
20057;DHT22;10189;49.546;7.906;2023-03-16T00:42:27;-3.00;99.90
20057;DHT22;10189;49.546;7.906;2023-03-16T00:44:55;-3.00;99.90
20057;DHT22;10189;49.546;7.906;2023-03-16T00:47:24;-3.10;99.90
20057;DHT22;10189;49.546;7.906;2023-03-16T00:49:55;-3.10;99.90
20057;DHT22;10189;49.546;7.906;2023-03-16T00:52:21;-3.10;99.90
20057;DHT22;10189;49.546;7.906;2023-03-16T00:54:49;-3.10;99.90
20057;DHT22;10189;49.546;7.906;2023-03-16T00:57:18;-3.10;99.90
20057;DHT22;10189;49.546;7.906;2023-03-16T00:59:46;-3.10;99.90
20057;DHT22;10189;49.546;7.906;2023-03-16T01:02:14;-3.10;99.90
20057;DHT22;10189;49.546;7.906;2023-03-16T01:04:42;-3.20;99.90
20057;DHT22;10189;49.546;7.906;2023-03-16T01:07:10;-3.10;99.90
20057;DHT22;10189;49.546;7.906;2023-03-16T01:09:41;-3.10;99.90
20057;DHT22;10189;49.546;7.906;2023-03-16T01:12:10;-3.10;99.90
20057;DHT22;10189;49.546;7.906;2023-03-16T01:14:39;-3.00;99.90
20057;DHT22;10189;49.546;7.906;2023-03-16T01:17:07;-3.00;99.90
20057;DHT22;10189;49.546;7.906;2023-03-16T01:19:35;-3.00;99.90
20057;DHT22;10189;49.546;7.906;2023-03-16T01:22:04;-3.00;99.90
20057;DHT22;10189;49.546;7.906;2023-03-16T01:24:32;-3.00;99.90
20057;DHT22;10189;49.546;7.906;2023-03-16T01:26:59;-3.00;99.90
20057;DHT22;10189;49.546;7.906;2023-03-16T01:29:25;-3.00;99.90
20057;DHT22;10189;49.546;7.906;2023-03-16T01:31:53;-3.00;99.90
20057;DHT22;10189;49.546;7.906;2023-03-16T01:34:20;-3.10;99.90
20057;DHT22;10189;49.546;7.906;2023-03-16T01:36:48;-3.10;99.90
20057;DHT22;10189;49.546;7.906;2023-03-16T01:39:23;-3.20;99.90
20057;DHT22;10189;49.546;7.906;2023-03-16T01:41:50;-3.20;99.90
20057;DHT22;10189;49.546;7.906;2023-03-16T01:44:19;-3.30;99.90
20057;DHT22;10189;49.546;7.906;2023-03-16T01:46:55;-3.30;99.90
20057;DHT22;10189;49.546;7.906;2023-03-16T01:49:26;-3.30;99.90
20057;DHT22;10189;49.546;7.906;2023-03-16T01:52:06;-3.40;99.90
20057;DHT22;10189;49.546;7.906;2023-03-16T01:54:39;-3.40;99.90
20057;DHT22;10189;49.546;7.906;2023-03-16T01:57:11;-3.40;99.90
20057;DHT22;10189;49.546;7.906;2023-03-16T01:59:54;-3.40;99.90
20057;DHT22;10189;49.546;7.906;2023-03-16T02:03:03;-3.40;99.90
20057;DHT22;10189;49.546;7.906;2023-03-16T02:05:58;-3.40;99.90
20057;DHT22;10189;49.546;7.906;2023-03-16T02:08:43;-3.40;99.90
20057;DHT22;10189;49.546;7.906;2023-03-16T02:11:10;-3.40;99.90
20057;DHT22;10189;49.546;7.906;2023-03-16T02:13:48;-3.40;99.90
20057;DHT22;10189;49.546;7.906;2023-03-16T02:16:17;-3.40;99.90
20057;DHT22;10189;49.546;7.906;2023-03-16T02:18:49;-3.30;99.90
20057;DHT22;10189;49.546;7.906;2023-03-16T02:21:34;-3.30;99.90
20057;DHT22;10189;49.546;7.906;2023-03-16T02:24:14;-3.30;99.90
20057;DHT22;10189;49.546;7.906;2023-03-16T02:32:13;-3.10;99.90
20057;DHT22;10189;49.546;7.906;2023-03-16T02:34:42;-3.00;99.90
20057;DHT22;10189;49.546;7.906;2023-03-16T02:37:09;-3.00;99.90
20057;DHT22;10189;49.546;7.906;2023-03-16T02:39:39;-2.80;99.90
20057;DHT22;10189;49.546;7.906;2023-03-16T02:42:16;-2.80;99.90
20057;DHT22;10189;49.546;7.906;2023-03-16T02:44:51;-2.80;99.90
20057;DHT22;10189;49.546;7.906;2023-03-16T02:47:34;-2.80;99.90
20057;DHT22;10189;49.546;7.906;2023-03-16T02:50:05;-2.80;99.90
20057;DHT22;10189;49.546;7.906;2023-03-16T02:52:33;-2.90;99.90
20057;DHT22;10189;49.546;7.906;2023-03-16T02:55:00;-2.80;99.90
20057;DHT22;10189;49.546;7.906;2023-03-16T02:57:26;-2.90;99.90
20057;DHT22;10189;49.546;7.906;2023-03-16T02:59:55;-2.90;99.90
20057;DHT22;10189;49.546;7.906;2023-03-16T03:02:21;-2.80;99.90
20057;DHT22;10189;49.546;7.906;2023-03-16T03:04:47;-2.90;99.90
20057;DHT22;10189;49.546;7.906;2023-03-16T03:07:13;-2.90;99.90
20057;DHT22;10189;49.546;7.906;2023-03-16T03:09:56;-2.90;99.90
20057;DHT22;10189;49.546;7.906;2023-03-16T03:12:23;-2.90;99.90
20057;DHT22;10189;49.546;7.906;2023-03-16T03:14:49;-2.80;99.90
20057;DHT22;10189;49.546;7.906;2023-03-16T03:17:18;-2.70;99.90
20057;DHT22;10189;49.546;7.906;2023-03-16T03:19:44;-2.70;99.90
20057;DHT22;10189;49.546;7.906;2023-03-16T03:22:11;-2.70;99.90
20057;DHT22;10189;49.546;7.906;2023-03-16T03:24:36;-2.70;99.90
20057;DHT22;10189;49.546;7.906;2023-03-16T03:27:02;-2.60;99.90
20057;DHT22;10189;49.546;7.906;2023-03-16T03:29:32;-2.60;99.90
20057;DHT22;10189;49.546;7.906;2023-03-16T03:32:01;-2.50;99.90
20057;DHT22;10189;49.546;7.906;2023-03-16T03:34:29;-2.40;99.90
20057;DHT22;10189;49.546;7.906;2023-03-16T03:36:57;-2.40;99.90
20057;DHT22;10189;49.546;7.906;2023-03-16T03:39:24;-2.30;99.90
20057;DHT22;10189;49.546;7.906;2023-03-16T03:41:51;-2.20;99.90
20057;DHT22;10189;49.546;7.906;2023-03-16T03:44:21;-2.20;99.90
20057;DHT22;10189;49.546;7.906;2023-03-16T03:46:47;-2.20;99.90
20057;DHT22;10189;49.546;7.906;2023-03-16T03:49:14;-2.20;99.90
20057;DHT22;10189;49.546;7.906;2023-03-16T03:51:41;-2.20;99.90
20057;DHT22;10189;49.546;7.906;2023-03-16T03:54:15;-2.10;99.90
20057;DHT22;10189;49.546;7.906;2023-03-16T03:56:57;-2.20;99.90
20057;DHT22;10189;49.546;7.906;2023-03-16T03:59:23;-2.10;99.90
20057;DHT22;10189;49.546;7.906;2023-03-16T04:01:58;-2.20;99.90
20057;DHT22;10189;49.546;7.906;2023-03-16T04:04:29;-2.20;99.90
20057;DHT22;10189;49.546;7.906;2023-03-16T04:06:55;-2.20;99.90
20057;DHT22;10189;49.546;7.906;2023-03-16T04:09:21;-2.20;99.90
20057;DHT22;10189;49.546;7.906;2023-03-16T04:11:48;-2.20;99.90
20057;DHT22;10189;49.546;7.906;2023-03-16T04:14:14;-2.30;99.90
20057;DHT22;10189;49.546;7.906;2023-03-16T04:16:40;-2.30;99.90
20057;DHT22;10189;49.546;7.906;2023-03-16T04:19:10;-2.20;99.90
20057;DHT22;10189;49.546;7.906;2023-03-16T04:21:36;-2.10;99.90
20057;DHT22;10189;49.546;7.906;2023-03-16T04:24:03;-2.00;99.90
20057;DHT22;10189;49.546;7.906;2023-03-16T04:26:33;-2.00;99.90
20057;DHT22;10189;49.546;7.906;2023-03-16T04:28:59;-2.00;99.90
20057;DHT22;10189;49.546;7.906;2023-03-16T04:31:28;-2.00;99.90
20057;DHT22;10189;49.546;7.906;2023-03-16T04:33:55;-2.00;99.90
20057;DHT22;10189;49.546;7.906;2023-03-16T04:36:22;-2.00;99.90
20057;DHT22;10189;49.546;7.906;2023-03-16T04:38:49;-2.00;99.90
20057;DHT22;10189;49.546;7.906;2023-03-16T04:41:17;-1.90;99.90
20057;DHT22;10189;49.546;7.906;2023-03-16T04:43:56;-1.90;99.90
20057;DHT22;10189;49.546;7.906;2023-03-16T04:46:24;-2.00;99.90
20057;DHT22;10189;49.546;7.906;2023-03-16T04:48:52;-1.90;99.90
20057;DHT22;10189;49.546;7.906;2023-03-16T04:51:24;-1.90;99.90
20057;DHT22;10189;49.546;7.906;2023-03-16T04:54:03;-1.90;99.90
20057;DHT22;10189;49.546;7.906;2023-03-16T04:56:33;-1.90;99.90
20057;DHT22;10189;49.546;7.906;2023-03-16T04:59:03;-1.80;99.90
20057;DHT22;10189;49.546;7.906;2023-03-16T05:01:40;-1.80;99.90
20057;DHT22;10189;49.546;7.906;2023-03-16T05:04:08;-1.80;99.90
20057;DHT22;10189;49.546;7.906;2023-03-16T05:06:36;-1.80;99.90
20057;DHT22;10189;49.546;7.906;2023-03-16T05:09:03;-1.80;99.90
20057;DHT22;10189;49.546;7.906;2023-03-16T05:11:34;-1.80;99.90
20057;DHT22;10189;49.546;7.906;2023-03-16T05:14:02;-1.90;99.90
20057;DHT22;10189;49.546;7.906;2023-03-16T05:16:32;-1.90;99.90
20057;DHT22;10189;49.546;7.906;2023-03-16T05:18:59;-1.90;99.90
20057;DHT22;10189;49.546;7.906;2023-03-16T05:21:28;-1.80;99.90
20057;DHT22;10189;49.546;7.906;2023-03-16T05:24:07;-1.80;99.90
20057;DHT22;10189;49.546;7.906;2023-03-16T05:26:34;-1.80;99.90
20057;DHT22;10189;49.546;7.906;2023-03-16T05:29:00;-1.80;99.90
20057;DHT22;10189;49.546;7.906;2023-03-16T05:31:29;-1.90;99.90
20057;DHT22;10189;49.546;7.906;2023-03-16T05:34:00;-1.90;99.90
20057;DHT22;10189;49.546;7.906;2023-03-16T05:36:27;-1.90;99.90
20057;DHT22;10189;49.546;7.906;2023-03-16T05:38:58;-1.90;99.90
20057;DHT22;10189;49.546;7.906;2023-03-16T05:41:35;-1.80;99.90
20057;DHT22;10189;49.546;7.906;2023-03-16T05:44:13;-1.80;99.90
20057;DHT22;10189;49.546;7.906;2023-03-16T05:47:02;-1.80;99.90
20057;DHT22;10189;49.546;7.906;2023-03-16T05:49:31;-1.80;99.90
20057;DHT22;10189;49.546;7.906;2023-03-16T05:51:59;-1.90;99.90
20057;DHT22;10189;49.546;7.906;2023-03-16T05:54:24;-1.90;99.90
20057;DHT22;10189;49.546;7.906;2023-03-16T05:56:51;-2.00;99.90
20057;DHT22;10189;49.546;7.906;2023-03-16T05:59:17;-2.00;99.90
20057;DHT22;10189;49.546;7.906;2023-03-16T06:01:51;-1.90;99.90
20057;DHT22;10189;49.546;7.906;2023-03-16T06:04:18;-1.90;99.90
20057;DHT22;10189;49.546;7.906;2023-03-16T06:06:44;-1.90;99.90
20057;DHT22;10189;49.546;7.906;2023-03-16T06:09:19;-1.80;99.90
20057;DHT22;10189;49.546;7.906;2023-03-16T06:11:45;-1.80;99.90
20057;DHT22;10189;49.546;7.906;2023-03-16T06:14:13;-1.70;99.90
20057;DHT22;10189;49.546;7.906;2023-03-16T06:16:40;-1.60;99.90
20057;DHT22;10189;49.546;7.906;2023-03-16T06:19:06;-1.60;99.90
20057;DHT22;10189;49.546;7.906;2023-03-16T06:21:32;-1.50;99.90
20057;DHT22;10189;49.546;7.906;2023-03-16T06:24:05;-1.40;99.90
20057;DHT22;10189;49.546;7.906;2023-03-16T06:26:34;-1.30;99.90
20057;DHT22;10189;49.546;7.906;2023-03-16T06:29:02;-1.20;99.90
20057;DHT22;10189;49.546;7.906;2023-03-16T06:31:29;-1.10;99.90
20057;DHT22;10189;49.546;7.906;2023-03-16T06:33:55;-1.00;99.90
20057;DHT22;10189;49.546;7.906;2023-03-16T06:36:21;-0.90;99.90
20057;DHT22;10189;49.546;7.906;2023-03-16T06:38:51;-0.90;99.90
20057;DHT22;10189;49.546;7.906;2023-03-16T06:41:37;-0.90;99.90
20057;DHT22;10189;49.546;7.906;2023-03-16T06:44:04;-0.80;99.90
20057;DHT22;10189;49.546;7.906;2023-03-16T06:46:32;-0.70;99.90
20057;DHT22;10189;49.546;7.906;2023-03-16T06:49:00;-0.70;99.90
20057;DHT22;10189;49.546;7.906;2023-03-16T06:51:26;-0.70;99.90
20057;DHT22;10189;49.546;7.906;2023-03-16T06:53:53;-0.70;99.90
20057;DHT22;10189;49.546;7.906;2023-03-16T06:56:19;-0.70;99.90
20057;DHT22;10189;49.546;7.906;2023-03-16T06:58:46;-0.60;99.90
20057;DHT22;10189;49.546;7.906;2023-03-16T07:01:12;-0.40;99.90
20057;DHT22;10189;49.546;7.906;2023-03-16T07:03:38;-0.30;99.90
20057;DHT22;10189;49.546;7.906;2023-03-16T07:06:16;-0.10;99.90
20057;DHT22;10189;49.546;7.906;2023-03-16T07:08:42;0.10;99.90
20057;DHT22;10189;49.546;7.906;2023-03-16T07:11:09;0.20;99.90
20057;DHT22;10189;49.546;7.906;2023-03-16T07:13:35;0.30;99.90
20057;DHT22;10189;49.546;7.906;2023-03-16T07:16:02;0.40;99.90
20057;DHT22;10189;49.546;7.906;2023-03-16T07:18:30;0.50;99.90
20057;DHT22;10189;49.546;7.906;2023-03-16T07:20:56;0.70;99.90
20057;DHT22;10189;49.546;7.906;2023-03-16T07:23:25;0.90;99.90
20057;DHT22;10189;49.546;7.906;2023-03-16T07:25:54;1.00;99.90
20057;DHT22;10189;49.546;7.906;2023-03-16T07:28:21;1.20;99.90
20057;DHT22;10189;49.546;7.906;2023-03-16T07:30:49;1.20;99.90
20057;DHT22;10189;49.546;7.906;2023-03-16T07:33:16;1.40;99.90
20057;DHT22;10189;49.546;7.906;2023-03-16T07:35:43;1.50;99.90
20057;DHT22;10189;49.546;7.906;2023-03-16T07:38:09;1.60;99.90
20057;DHT22;10189;49.546;7.906;2023-03-16T07:40:39;1.70;99.90
20057;DHT22;10189;49.546;7.906;2023-03-16T07:43:11;1.70;99.90
20057;DHT22;10189;49.546;7.906;2023-03-16T07:45:51;1.80;99.90
20057;DHT22;10189;49.546;7.906;2023-03-16T07:48:19;2.00;99.90
20057;DHT22;10189;49.546;7.906;2023-03-16T07:50:55;2.10;98.70
20057;DHT22;10189;49.546;7.906;2023-03-16T07:53:23;2.30;99.60
20057;DHT22;10189;49.546;7.906;2023-03-16T07:55:55;2.40;97.60
20057;DHT22;10189;49.546;7.906;2023-03-16T07:58:21;2.60;96.60
20057;DHT22;10189;49.546;7.906;2023-03-16T08:00:49;2.70;96.50
20057;DHT22;10189;49.546;7.906;2023-03-16T08:03:15;2.80;95.30
20057;DHT22;10189;49.546;7.906;2023-03-16T08:05:43;2.80;94.30
20057;DHT22;10189;49.546;7.906;2023-03-16T08:08:13;2.90;94.30
20057;DHT22;10189;49.546;7.906;2023-03-16T08:10:41;3.00;93.00
20057;DHT22;10189;49.546;7.906;2023-03-16T08:13:11;2.80;93.50
20057;DHT22;10189;49.546;7.906;2023-03-16T08:15:40;2.90;92.40
20057;DHT22;10189;49.546;7.906;2023-03-16T08:18:16;2.70;92.90
20057;DHT22;10189;49.546;7.906;2023-03-16T08:20:43;2.60;93.00
20057;DHT22;10189;49.546;7.906;2023-03-16T08:23:09;2.50;93.50
20057;DHT22;10189;49.546;7.906;2023-03-16T08:25:39;2.30;95.10
20057;DHT22;10189;49.546;7.906;2023-03-16T08:28:10;2.30;96.00
20057;DHT22;10189;49.546;7.906;2023-03-16T08:30:46;2.20;95.40
20057;DHT22;10189;49.546;7.906;2023-03-16T08:33:25;2.30;97.00
20057;DHT22;10189;49.546;7.906;2023-03-16T08:35:52;2.30;96.20
20057;DHT22;10189;49.546;7.906;2023-03-16T08:38:18;2.40;97.30
20057;DHT22;10189;49.546;7.906;2023-03-16T08:40:45;2.60;97.10
20057;DHT22;10189;49.546;7.906;2023-03-16T08:43:16;2.70;94.70
20057;DHT22;10189;49.546;7.906;2023-03-16T08:45:45;2.70;95.50
20057;DHT22;10189;49.546;7.906;2023-03-16T08:48:12;3.00;95.00
20057;DHT22;10189;49.546;7.906;2023-03-16T08:50:42;3.20;93.90
20057;DHT22;10189;49.546;7.906;2023-03-16T08:53:10;3.40;93.20
20057;DHT22;10189;49.546;7.906;2023-03-16T08:55:38;3.60;92.10
20057;DHT22;10189;49.546;7.906;2023-03-16T08:58:06;3.60;90.20
20057;DHT22;10189;49.546;7.906;2023-03-16T09:00:33;3.60;90.00
20057;DHT22;10189;49.546;7.906;2023-03-16T09:02:59;3.50;90.00
20057;DHT22;10189;49.546;7.906;2023-03-16T09:05:27;3.60;90.80
20057;DHT22;10189;49.546;7.906;2023-03-16T09:07:53;3.70;91.20
20057;DHT22;10189;49.546;7.906;2023-03-16T09:10:20;3.70;90.80
20057;DHT22;10189;49.546;7.906;2023-03-16T09:12:51;3.70;92.40
20057;DHT22;10189;49.546;7.906;2023-03-16T09:15:19;4.00;91.50
20057;DHT22;10189;49.546;7.906;2023-03-16T09:17:46;4.00;88.70
20057;DHT22;10189;49.546;7.906;2023-03-16T09:20:14;3.90;89.90
20057;DHT22;10189;49.546;7.906;2023-03-16T09:22:43;3.90;89.50
20057;DHT22;10189;49.546;7.906;2023-03-16T09:25:09;4.10;89.20
20057;DHT22;10189;49.546;7.906;2023-03-16T09:27:36;4.10;90.10
20057;DHT22;10189;49.546;7.906;2023-03-16T09:30:04;4.10;88.50
20057;DHT22;10189;49.546;7.906;2023-03-16T09:32:32;4.10;88.60
20057;DHT22;10189;49.546;7.906;2023-03-16T09:34:58;4.30;88.50
20057;DHT22;10189;49.546;7.906;2023-03-16T09:37:24;4.30;87.70
20057;DHT22;10189;49.546;7.906;2023-03-16T09:39:51;4.30;87.40
20057;DHT22;10189;49.546;7.906;2023-03-16T09:42:26;4.40;88.30
20057;DHT22;10189;49.546;7.906;2023-03-16T09:45:15;4.60;88.20
20057;DHT22;10189;49.546;7.906;2023-03-16T09:47:48;4.70;86.60
20057;DHT22;10189;49.546;7.906;2023-03-16T09:50:28;4.70;87.10
20057;DHT22;10189;49.546;7.906;2023-03-16T09:53:30;4.60;86.60
20057;DHT22;10189;49.546;7.906;2023-03-16T09:56:05;4.60;88.20
20057;DHT22;10189;49.546;7.906;2023-03-16T09:58:35;4.60;88.40
20057;DHT22;10189;49.546;7.906;2023-03-16T10:01:31;4.80;87.30
20057;DHT22;10189;49.546;7.906;2023-03-16T10:04:10;5.00;86.10
20057;DHT22;10189;49.546;7.906;2023-03-16T10:07:08;5.30;86.00
20057;DHT22;10189;49.546;7.906;2023-03-16T10:10:14;5.50;83.00
20057;DHT22;10189;49.546;7.906;2023-03-16T10:12:51;5.80;83.10
20057;DHT22;10189;49.546;7.906;2023-03-16T10:15:28;6.00;79.70
20057;DHT22;10189;49.546;7.906;2023-03-16T10:18:32;6.20;81.00
20057;DHT22;10189;49.546;7.906;2023-03-16T10:21:04;6.40;78.20
20057;DHT22;10189;49.546;7.906;2023-03-16T10:23:35;6.70;79.30
20057;DHT22;10189;49.546;7.906;2023-03-16T10:26:08;7.00;76.40
20057;DHT22;10189;49.546;7.906;2023-03-16T10:28:38;7.20;77.10
20057;DHT22;10189;49.546;7.906;2023-03-16T10:31:04;7.40;75.50
20057;DHT22;10189;49.546;7.906;2023-03-16T10:33:32;7.50;75.80
20057;DHT22;10189;49.546;7.906;2023-03-16T10:39:04;7.80;74.00
20057;DHT22;10189;49.546;7.906;2023-03-16T10:41:36;7.80;71.80
20057;DHT22;10189;49.546;7.906;2023-03-16T10:44:14;7.50;71.60
20057;DHT22;10189;49.546;7.906;2023-03-16T10:46:49;7.40;73.60
20057;DHT22;10189;49.546;7.906;2023-03-16T10:49:27;7.50;74.30
20057;DHT22;10189;49.546;7.906;2023-03-16T10:52:05;7.50;73.30
20057;DHT22;10189;49.546;7.906;2023-03-16T10:54:40;7.50;74.20
20057;DHT22;10189;49.546;7.906;2023-03-16T10:57:24;7.40;74.40
20057;DHT22;10189;49.546;7.906;2023-03-16T10:59:58;7.40;74.60
20057;DHT22;10189;49.546;7.906;2023-03-16T11:02:34;7.10;74.30
20057;DHT22;10189;49.546;7.906;2023-03-16T11:07:49;6.80;77.00
20057;DHT22;10189;49.546;7.906;2023-03-16T11:10:28;7.00;76.70
20057;DHT22;10189;49.546;7.906;2023-03-16T11:13:18;7.10;77.90
20057;DHT22;10189;49.546;7.906;2023-03-16T11:15:55;7.20;75.70
20057;DHT22;10189;49.546;7.906;2023-03-16T11:18:31;7.10;74.00
20057;DHT22;10189;49.546;7.906;2023-03-16T11:21:14;7.10;76.10
20057;DHT22;10189;49.546;7.906;2023-03-16T11:23:49;7.20;76.80
20057;DHT22;10189;49.546;7.906;2023-03-16T11:26:28;7.40;76.50
20057;DHT22;10189;49.546;7.906;2023-03-16T11:29:08;7.20;73.10
20057;DHT22;10189;49.546;7.906;2023-03-16T11:31:50;7.30;74.00
20057;DHT22;10189;49.546;7.906;2023-03-16T11:34:28;7.40;73.70
20057;DHT22;10189;49.546;7.906;2023-03-16T11:37:09;7.50;73.50
20057;DHT22;10189;49.546;7.906;2023-03-16T11:40:13;7.40;74.50
20057;DHT22;10189;49.546;7.906;2023-03-16T12:16:20;8.70;66.60
20057;DHT22;10189;49.546;7.906;2023-03-16T12:21:41;8.80;64.30
20057;DHT22;10189;49.546;7.906;2023-03-16T12:24:22;8.70;64.50
20057;DHT22;10189;49.546;7.906;2023-03-16T12:26:53;8.70;66.20
20057;DHT22;10189;49.546;7.906;2023-03-16T12:29:33;8.90;65.70
20057;DHT22;10189;49.546;7.906;2023-03-16T12:32:14;9.10;62.90
20057;DHT22;10189;49.546;7.906;2023-03-16T12:35:02;9.10;61.50
20057;DHT22;10189;49.546;7.906;2023-03-16T12:41:10;9.10;62.60
20057;DHT22;10189;49.546;7.906;2023-03-16T12:49:22;9.70;53.70
20057;DHT22;10189;49.546;7.906;2023-03-16T12:52:01;10.00;54.60
20057;DHT22;10189;49.546;7.906;2023-03-16T12:54:33;10.30;52.70
20057;DHT22;10189;49.546;7.906;2023-03-16T12:57:05;10.40;47.90
20057;DHT22;10189;49.546;7.906;2023-03-16T12:59:44;10.30;50.50
20057;DHT22;10189;49.546;7.906;2023-03-16T13:02:31;10.40;50.50
20057;DHT22;10189;49.546;7.906;2023-03-16T13:07:35;10.70;47.20
20057;DHT22;10189;49.546;7.906;2023-03-16T13:10:09;10.80;49.60
20057;DHT22;10189;49.546;7.906;2023-03-16T13:12:38;10.90;49.30
20057;DHT22;10189;49.546;7.906;2023-03-16T13:20:59;10.80;48.10
20057;DHT22;10189;49.546;7.906;2023-03-16T13:23:58;10.70;48.10
20057;DHT22;10189;49.546;7.906;2023-03-16T13:31:48;10.60;48.60
20057;DHT22;10189;49.546;7.906;2023-03-16T13:34:20;10.80;46.60
20057;DHT22;10189;49.546;7.906;2023-03-16T13:36:55;11.00;49.90
20057;DHT22;10189;49.546;7.906;2023-03-16T13:39:26;11.10;47.50
20057;DHT22;10189;49.546;7.906;2023-03-16T13:42:18;11.10;47.70
20057;DHT22;10189;49.546;7.906;2023-03-16T13:44:44;11.20;47.90
20057;DHT22;10189;49.546;7.906;2023-03-16T13:47:15;11.10;47.90
20057;DHT22;10189;49.546;7.906;2023-03-16T13:49:50;11.30;46.90
20057;DHT22;10189;49.546;7.906;2023-03-16T13:52:27;11.40;47.20
20057;DHT22;10189;49.546;7.906;2023-03-16T13:54:56;11.50;47.20
20057;DHT22;10189;49.546;7.906;2023-03-16T13:57:29;11.70;47.60
20057;DHT22;10189;49.546;7.906;2023-03-16T14:02:55;11.40;45.90
20057;DHT22;10189;49.546;7.906;2023-03-16T14:05:24;11.50;46.80
20057;DHT22;10189;49.546;7.906;2023-03-16T14:07:53;11.50;46.00
20057;DHT22;10189;49.546;7.906;2023-03-16T14:10:22;11.60;47.00
20057;DHT22;10189;49.546;7.906;2023-03-16T14:13:05;11.70;46.60
20057;DHT22;10189;49.546;7.906;2023-03-16T14:15:35;11.80;46.40
20057;DHT22;10189;49.546;7.906;2023-03-16T14:18:19;11.70;46.90
20057;DHT22;10189;49.546;7.906;2023-03-16T14:20:53;11.80;46.10
20057;DHT22;10189;49.546;7.906;2023-03-16T14:23:23;11.60;46.00
20057;DHT22;10189;49.546;7.906;2023-03-16T14:25:53;11.60;46.20
20057;DHT22;10189;49.546;7.906;2023-03-16T14:28:32;11.50;46.70
20057;DHT22;10189;49.546;7.906;2023-03-16T14:31:08;11.50;46.70
20057;DHT22;10189;49.546;7.906;2023-03-16T14:33:39;11.50;46.30
20057;DHT22;10189;49.546;7.906;2023-03-16T14:36:14;11.40;46.80
20057;DHT22;10189;49.546;7.906;2023-03-16T14:38:45;11.40;48.20
20057;DHT22;10189;49.546;7.906;2023-03-16T14:41:24;11.50;46.70
20057;DHT22;10189;49.546;7.906;2023-03-16T14:43:59;11.40;46.50
20057;DHT22;10189;49.546;7.906;2023-03-16T14:46:36;11.40;47.60
20057;DHT22;10189;49.546;7.906;2023-03-16T14:49:20;11.20;47.80
20057;DHT22;10189;49.546;7.906;2023-03-16T14:52:28;11.10;47.50
20057;DHT22;10189;49.546;7.906;2023-03-16T14:54:59;10.90;47.70
20057;DHT22;10189;49.546;7.906;2023-03-16T14:57:27;10.80;48.20
20057;DHT22;10189;49.546;7.906;2023-03-16T14:59:54;10.70;48.80
20057;DHT22;10189;49.546;7.906;2023-03-16T15:02:27;10.50;49.00
20057;DHT22;10189;49.546;7.906;2023-03-16T15:04:56;10.50;50.50
20057;DHT22;10189;49.546;7.906;2023-03-16T15:10:27;10.30;50.80
20057;DHT22;10189;49.546;7.906;2023-03-16T15:12:58;10.30;51.10
20057;DHT22;10189;49.546;7.906;2023-03-16T15:15:38;10.20;51.80
20057;DHT22;10189;49.546;7.906;2023-03-16T15:18:08;10.20;51.50
20057;DHT22;10189;49.546;7.906;2023-03-16T15:20:42;10.20;51.80
20057;DHT22;10189;49.546;7.906;2023-03-16T15:23:13;10.30;51.70
20057;DHT22;10189;49.546;7.906;2023-03-16T15:25:42;10.20;51.50
20057;DHT22;10189;49.546;7.906;2023-03-16T15:28:20;10.20;51.80
20057;DHT22;10189;49.546;7.906;2023-03-16T15:30:53;10.20;52.80
20057;DHT22;10189;49.546;7.906;2023-03-16T15:33:21;10.20;53.20
20057;DHT22;10189;49.546;7.906;2023-03-16T15:35:49;10.20;53.40
20057;DHT22;10189;49.546;7.906;2023-03-16T15:38:22;10.20;53.30
20057;DHT22;10189;49.546;7.906;2023-03-16T15:40:49;10.30;53.10
20057;DHT22;10189;49.546;7.906;2023-03-16T15:43:24;10.20;52.20
20057;DHT22;10189;49.546;7.906;2023-03-16T15:45:57;10.10;52.80
20057;DHT22;10189;49.546;7.906;2023-03-16T15:48:32;10.10;53.30
20057;DHT22;10189;49.546;7.906;2023-03-16T15:51:01;10.00;53.00
20057;DHT22;10189;49.546;7.906;2023-03-16T15:53:39;9.90;54.30
20057;DHT22;10189;49.546;7.906;2023-03-16T15:56:10;9.80;54.80
20057;DHT22;10189;49.546;7.906;2023-03-16T15:58:42;9.80;55.30
20057;DHT22;10189;49.546;7.906;2023-03-16T16:01:21;9.80;56.20
20057;DHT22;10189;49.546;7.906;2023-03-16T16:03:48;9.80;56.00
20057;DHT22;10189;49.546;7.906;2023-03-16T16:06:15;9.80;56.30
20057;DHT22;10189;49.546;7.906;2023-03-16T16:08:42;9.70;56.50
20057;DHT22;10189;49.546;7.906;2023-03-16T16:11:13;9.70;56.90
20057;DHT22;10189;49.546;7.906;2023-03-16T16:13:42;9.70;57.60
20057;DHT22;10189;49.546;7.906;2023-03-16T16:16:18;9.70;57.60
20057;DHT22;10189;49.546;7.906;2023-03-16T16:18:45;9.60;57.40
20057;DHT22;10189;49.546;7.906;2023-03-16T16:21:21;9.50;57.50
20057;DHT22;10189;49.546;7.906;2023-03-16T16:23:53;9.50;57.50
20057;DHT22;10189;49.546;7.906;2023-03-16T16:28:55;9.40;58.70
20057;DHT22;10189;49.546;7.906;2023-03-16T16:31:23;9.30;58.90
20057;DHT22;10189;49.546;7.906;2023-03-16T16:33:51;9.30;58.80
20057;DHT22;10189;49.546;7.906;2023-03-16T16:36:18;9.20;58.70
20057;DHT22;10189;49.546;7.906;2023-03-16T16:38:47;9.10;58.40
20057;DHT22;10189;49.546;7.906;2023-03-16T16:43:52;9.10;58.70
20057;DHT22;10189;49.546;7.906;2023-03-16T16:46:25;9.00;59.60
20057;DHT22;10189;49.546;7.906;2023-03-16T16:49:13;8.90;60.30
20057;DHT22;10189;49.546;7.906;2023-03-16T16:51:53;8.80;61.20
20057;DHT22;10189;49.546;7.906;2023-03-16T16:54:21;8.70;61.00
20057;DHT22;10189;49.546;7.906;2023-03-16T16:56:51;8.70;61.40
20057;DHT22;10189;49.546;7.906;2023-03-16T16:59:24;8.50;61.00
20057;DHT22;10189;49.546;7.906;2023-03-16T17:01:52;8.50;61.50
20057;DHT22;10189;49.546;7.906;2023-03-16T17:04:23;8.50;62.20
20057;DHT22;10189;49.546;7.906;2023-03-16T17:07:00;8.40;63.20
20057;DHT22;10189;49.546;7.906;2023-03-16T17:09:28;8.30;63.90
20057;DHT22;10189;49.546;7.906;2023-03-16T17:11:57;8.20;64.20
20057;DHT22;10189;49.546;7.906;2023-03-16T17:14:25;8.00;65.10
20057;DHT22;10189;49.546;7.906;2023-03-16T17:16:57;7.90;66.50
20057;DHT22;10189;49.546;7.906;2023-03-16T17:19:27;7.80;66.50
20057;DHT22;10189;49.546;7.906;2023-03-16T17:21:54;7.70;66.10
20057;DHT22;10189;49.546;7.906;2023-03-16T17:24:22;7.60;66.20
20057;DHT22;10189;49.546;7.906;2023-03-16T17:26:54;7.50;67.30